sensor_id;sensor_type;location;lat;lon;timestamp;P1;durP1;ratioP1;P2;durP2;ratioP2
59512;SDS011;45330;51.634;5.562;2023-04-08T00:00:30;42.10;;;22.25;;
59512;SDS011;45330;51.634;5.562;2023-04-08T00:02:56;38.97;;;22.55;;
59512;SDS011;45330;51.634;5.562;2023-04-08T00:05:21;41.83;;;23.17;;
59512;SDS011;45330;51.634;5.562;2023-04-08T00:07:47;40.58;;;23.25;;
59512;SDS011;45330;51.634;5.562;2023-04-08T00:10:12;42.72;;;23.67;;
59512;SDS011;45330;51.634;5.562;2023-04-08T00:12:38;50.72;;;25.40;;
59512;SDS011;45330;51.634;5.562;2023-04-08T00:15:03;43.17;;;23.50;;
59512;SDS011;45330;51.634;5.562;2023-04-08T00:17:29;42.83;;;22.83;;
59512;SDS011;45330;51.634;5.562;2023-04-08T00:19:54;43.55;;;24.15;;
59512;SDS011;45330;51.634;5.562;2023-04-08T00:22:20;44.58;;;24.73;;
59512;SDS011;45330;51.634;5.562;2023-04-08T00:24:46;43.13;;;25.23;;
59512;SDS011;45330;51.634;5.562;2023-04-08T00:27:11;40.75;;;24.13;;
59512;SDS011;45330;51.634;5.562;2023-04-08T00:29:36;43.97;;;25.85;;
59512;SDS011;45330;51.634;5.562;2023-04-08T00:32:02;41.75;;;25.65;;
59512;SDS011;45330;51.634;5.562;2023-04-08T00:34:28;41.53;;;24.50;;
59512;SDS011;45330;51.634;5.562;2023-04-08T00:36:53;42.67;;;24.75;;
59512;SDS011;45330;51.634;5.562;2023-04-08T00:39:18;44.47;;;25.85;;
59512;SDS011;45330;51.634;5.562;2023-04-08T00:41:44;42.05;;;24.15;;
59512;SDS011;45330;51.634;5.562;2023-04-08T00:44:09;42.00;;;24.27;;
59512;SDS011;45330;51.634;5.562;2023-04-08T00:46:36;42.50;;;24.90;;
59512;SDS011;45330;51.634;5.562;2023-04-08T00:49:03;41.70;;;24.08;;
59512;SDS011;45330;51.634;5.562;2023-04-08T00:51:30;42.78;;;24.58;;
59512;SDS011;45330;51.634;5.562;2023-04-08T00:53:56;43.50;;;25.15;;
59512;SDS011;45330;51.634;5.562;2023-04-08T00:56:21;43.95;;;24.10;;
59512;SDS011;45330;51.634;5.562;2023-04-08T00:58:48;40.15;;;23.90;;
59512;SDS011;45330;51.634;5.562;2023-04-08T01:01:21;43.10;;;24.27;;
59512;SDS011;45330;51.634;5.562;2023-04-08T01:06:39;41.35;;;25.25;;
59512;SDS011;45330;51.634;5.562;2023-04-08T01:09:08;47.53;;;25.23;;
59512;SDS011;45330;51.634;5.562;2023-04-08T01:11:35;45.50;;;25.92;;
59512;SDS011;45330;51.634;5.562;2023-04-08T01:14:05;45.05;;;25.77;;
59512;SDS011;45330;51.634;5.562;2023-04-08T01:16:34;46.38;;;26.70;;
59512;SDS011;45330;51.634;5.562;2023-04-08T01:19:03;46.17;;;26.60;;
59512;SDS011;45330;51.634;5.562;2023-04-08T01:21:32;45.60;;;26.00;;
59512;SDS011;45330;51.634;5.562;2023-04-08T01:24:03;46.92;;;25.83;;
59512;SDS011;45330;51.634;5.562;2023-04-08T01:26:34;47.08;;;25.65;;
59512;SDS011;45330;51.634;5.562;2023-04-08T01:29:00;51.28;;;27.65;;
59512;SDS011;45330;51.634;5.562;2023-04-08T01:31:27;49.00;;;26.48;;
59512;SDS011;45330;51.634;5.562;2023-04-08T01:33:54;45.97;;;25.35;;
59512;SDS011;45330;51.634;5.562;2023-04-08T01:36:21;49.72;;;25.98;;
59512;SDS011;45330;51.634;5.562;2023-04-08T01:38:48;50.25;;;28.38;;
59512;SDS011;45330;51.634;5.562;2023-04-08T01:41:15;48.80;;;26.65;;
59512;SDS011;45330;51.634;5.562;2023-04-08T01:43:42;51.10;;;26.92;;
59512;SDS011;45330;51.634;5.562;2023-04-08T01:46:09;48.33;;;26.45;;
59512;SDS011;45330;51.634;5.562;2023-04-08T01:48:36;46.20;;;27.05;;
59512;SDS011;45330;51.634;5.562;2023-04-08T01:51:03;48.38;;;27.50;;
59512;SDS011;45330;51.634;5.562;2023-04-08T01:53:29;50.38;;;26.77;;
59512;SDS011;45330;51.634;5.562;2023-04-08T01:56:03;54.08;;;27.02;;
59512;SDS011;45330;51.634;5.562;2023-04-08T01:58:32;51.20;;;26.80;;
59512;SDS011;45330;51.634;5.562;2023-04-08T02:01:04;49.35;;;27.00;;
59512;SDS011;45330;51.634;5.562;2023-04-08T02:03:34;49.13;;;26.48;;
59512;SDS011;45330;51.634;5.562;2023-04-08T02:06:00;52.88;;;27.42;;
59512;SDS011;45330;51.634;5.562;2023-04-08T02:08:26;48.25;;;26.23;;
59512;SDS011;45330;51.634;5.562;2023-04-08T02:10:51;48.88;;;27.48;;
59512;SDS011;45330;51.634;5.562;2023-04-08T02:13:16;48.90;;;27.30;;
59512;SDS011;45330;51.634;5.562;2023-04-08T02:15:43;49.85;;;27.15;;
59512;SDS011;45330;51.634;5.562;2023-04-08T02:18:15;49.20;;;26.65;;
59512;SDS011;45330;51.634;5.562;2023-04-08T02:20:52;51.65;;;27.50;;
59512;SDS011;45330;51.634;5.562;2023-04-08T02:23:25;47.10;;;26.80;;
59512;SDS011;45330;51.634;5.562;2023-04-08T02:25:54;50.35;;;27.00;;
59512;SDS011;45330;51.634;5.562;2023-04-08T02:28:20;53.80;;;28.75;;
59512;SDS011;45330;51.634;5.562;2023-04-08T02:30:48;51.38;;;28.40;;
59512;SDS011;45330;51.634;5.562;2023-04-08T02:33:19;53.90;;;28.95;;
59512;SDS011;45330;51.634;5.562;2023-04-08T02:35:48;51.58;;;28.17;;
59512;SDS011;45330;51.634;5.562;2023-04-08T02:38:14;52.25;;;28.38;;
59512;SDS011;45330;51.634;5.562;2023-04-08T02:40:40;52.95;;;26.42;;
59512;SDS011;45330;51.634;5.562;2023-04-08T02:43:05;49.50;;;27.02;;
59512;SDS011;45330;51.634;5.562;2023-04-08T02:45:32;56.97;;;29.20;;
59512;SDS011;45330;51.634;5.562;2023-04-08T02:48:02;58.35;;;29.35;;
59512;SDS011;45330;51.634;5.562;2023-04-08T02:50:29;55.50;;;28.92;;
59512;SDS011;45330;51.634;5.562;2023-04-08T02:52:54;57.10;;;28.60;;
59512;SDS011;45330;51.634;5.562;2023-04-08T02:55:20;53.58;;;27.73;;
59512;SDS011;45330;51.634;5.562;2023-04-08T02:57:45;58.20;;;28.08;;
59512;SDS011;45330;51.634;5.562;2023-04-08T03:00:12;54.67;;;28.40;;
59512;SDS011;45330;51.634;5.562;2023-04-08T03:02:37;55.40;;;29.15;;
59512;SDS011;45330;51.634;5.562;2023-04-08T03:05:03;57.17;;;28.73;;
59512;SDS011;45330;51.634;5.562;2023-04-08T03:07:30;52.13;;;27.95;;
59512;SDS011;45330;51.634;5.562;2023-04-08T03:09:55;53.78;;;28.80;;
59512;SDS011;45330;51.634;5.562;2023-04-08T03:12:21;54.75;;;27.90;;
59512;SDS011;45330;51.634;5.562;2023-04-08T03:14:47;56.60;;;28.27;;
59512;SDS011;45330;51.634;5.562;2023-04-08T03:17:13;56.22;;;29.00;;
59512;SDS011;45330;51.634;5.562;2023-04-08T03:19:39;56.83;;;28.55;;
59512;SDS011;45330;51.634;5.562;2023-04-08T03:22:05;53.42;;;27.65;;
59512;SDS011;45330;51.634;5.562;2023-04-08T03:24:30;54.83;;;29.08;;
59512;SDS011;45330;51.634;5.562;2023-04-08T03:26:55;56.45;;;28.42;;
59512;SDS011;45330;51.634;5.562;2023-04-08T03:29:21;51.95;;;27.60;;
59512;SDS011;45330;51.634;5.562;2023-04-08T03:31:46;54.70;;;27.73;;
59512;SDS011;45330;51.634;5.562;2023-04-08T03:34:11;53.28;;;27.63;;
59512;SDS011;45330;51.634;5.562;2023-04-08T03:36:37;55.03;;;29.30;;
59512;SDS011;45330;51.634;5.562;2023-04-08T03:39:02;55.70;;;29.38;;
59512;SDS011;45330;51.634;5.562;2023-04-08T03:41:28;57.70;;;29.15;;
59512;SDS011;45330;51.634;5.562;2023-04-08T03:43:53;53.08;;;27.48;;
59512;SDS011;45330;51.634;5.562;2023-04-08T03:46:19;52.03;;;26.65;;
59512;SDS011;45330;51.634;5.562;2023-04-08T03:48:44;51.95;;;25.77;;
59512;SDS011;45330;51.634;5.562;2023-04-08T03:51:10;48.53;;;25.88;;
59512;SDS011;45330;51.634;5.562;2023-04-08T03:53:35;49.40;;;25.65;;
59512;SDS011;45330;51.634;5.562;2023-04-08T03:56:00;52.20;;;26.10;;
59512;SDS011;45330;51.634;5.562;2023-04-08T03:58:27;52.30;;;25.58;;
59512;SDS011;45330;51.634;5.562;2023-04-08T04:00:53;48.25;;;24.27;;
59512;SDS011;45330;51.634;5.562;2023-04-08T04:03:18;50.97;;;25.15;;
59512;SDS011;45330;51.634;5.562;2023-04-08T04:05:43;51.15;;;25.60;;
59512;SDS011;45330;51.634;5.562;2023-04-08T04:08:09;58.85;;;27.17;;
59512;SDS011;45330;51.634;5.562;2023-04-08T04:10:34;57.70;;;27.23;;
59512;SDS011;45330;51.634;5.562;2023-04-08T04:13:00;59.30;;;27.92;;
59512;SDS011;45330;51.634;5.562;2023-04-08T04:15:25;61.60;;;28.40;;
59512;SDS011;45330;51.634;5.562;2023-04-08T04:17:51;64.65;;;28.02;;
59512;SDS011;45330;51.634;5.562;2023-04-08T04:20:16;65.82;;;27.58;;
59512;SDS011;45330;51.634;5.562;2023-04-08T04:22:42;58.20;;;27.67;;
59512;SDS011;45330;51.634;5.562;2023-04-08T04:25:08;60.25;;;27.75;;
59512;SDS011;45330;51.634;5.562;2023-04-08T04:27:34;62.90;;;26.95;;
59512;SDS011;45330;51.634;5.562;2023-04-08T04:30:00;61.38;;;28.65;;
59512;SDS011;45330;51.634;5.562;2023-04-08T04:32:27;60.45;;;28.45;;
59512;SDS011;45330;51.634;5.562;2023-04-08T04:34:52;55.33;;;27.83;;
59512;SDS011;45330;51.634;5.562;2023-04-08T04:37:17;57.22;;;29.27;;
59512;SDS011;45330;51.634;5.562;2023-04-08T04:39:43;52.13;;;26.17;;
59512;SDS011;45330;51.634;5.562;2023-04-08T04:42:08;54.28;;;28.10;;
59512;SDS011;45330;51.634;5.562;2023-04-08T04:44:34;55.65;;;28.40;;
59512;SDS011;45330;51.634;5.562;2023-04-08T04:46:59;52.53;;;27.25;;
59512;SDS011;45330;51.634;5.562;2023-04-08T04:49:25;52.70;;;27.83;;
59512;SDS011;45330;51.634;5.562;2023-04-08T04:51:50;52.10;;;27.73;;
59512;SDS011;45330;51.634;5.562;2023-04-08T04:54:15;54.22;;;26.77;;
59512;SDS011;45330;51.634;5.562;2023-04-08T04:56:41;56.30;;;26.92;;
59512;SDS011;45330;51.634;5.562;2023-04-08T04:59:06;50.45;;;27.85;;
59512;SDS011;45330;51.634;5.562;2023-04-08T05:01:32;49.55;;;25.95;;
59512;SDS011;45330;51.634;5.562;2023-04-08T05:03:58;50.50;;;26.90;;
59512;SDS011;45330;51.634;5.562;2023-04-08T05:06:23;50.83;;;26.38;;
59512;SDS011;45330;51.634;5.562;2023-04-08T05:08:48;55.10;;;26.52;;
59512;SDS011;45330;51.634;5.562;2023-04-08T05:11:15;47.17;;;25.95;;
59512;SDS011;45330;51.634;5.562;2023-04-08T05:13:42;48.88;;;25.88;;
59512;SDS011;45330;51.634;5.562;2023-04-08T05:16:08;47.92;;;26.17;;
59512;SDS011;45330;51.634;5.562;2023-04-08T05:18:33;50.80;;;26.33;;
59512;SDS011;45330;51.634;5.562;2023-04-08T05:20:59;45.83;;;25.52;;
59512;SDS011;45330;51.634;5.562;2023-04-08T05:23:24;45.58;;;23.45;;
59512;SDS011;45330;51.634;5.562;2023-04-08T05:25:49;49.25;;;25.98;;
59512;SDS011;45330;51.634;5.562;2023-04-08T05:28:15;47.38;;;24.77;;
59512;SDS011;45330;51.634;5.562;2023-04-08T05:30:40;48.80;;;26.00;;
59512;SDS011;45330;51.634;5.562;2023-04-08T05:33:06;49.95;;;25.60;;
59512;SDS011;45330;51.634;5.562;2023-04-08T05:35:31;50.85;;;27.33;;
59512;SDS011;45330;51.634;5.562;2023-04-08T05:37:56;46.58;;;25.92;;
59512;SDS011;45330;51.634;5.562;2023-04-08T05:40:22;47.83;;;26.38;;
59512;SDS011;45330;51.634;5.562;2023-04-08T05:42:47;47.28;;;26.48;;
59512;SDS011;45330;51.634;5.562;2023-04-08T05:45:13;43.97;;;26.98;;
59512;SDS011;45330;51.634;5.562;2023-04-08T05:47:38;45.22;;;25.45;;
59512;SDS011;45330;51.634;5.562;2023-04-08T05:50:04;41.58;;;24.15;;
59512;SDS011;45330;51.634;5.562;2023-04-08T05:52:30;44.63;;;24.60;;
59512;SDS011;45330;51.634;5.562;2023-04-08T05:54:55;47.58;;;25.35;;
59512;SDS011;45330;51.634;5.562;2023-04-08T05:57:20;46.65;;;26.10;;
59512;SDS011;45330;51.634;5.562;2023-04-08T05:59:46;48.58;;;25.92;;
59512;SDS011;45330;51.634;5.562;2023-04-08T06:02:12;45.17;;;25.00;;
59512;SDS011;45330;51.634;5.562;2023-04-08T06:04:37;44.08;;;25.45;;
59512;SDS011;45330;51.634;5.562;2023-04-08T06:07:03;45.40;;;25.08;;
59512;SDS011;45330;51.634;5.562;2023-04-08T06:09:30;45.03;;;24.98;;
59512;SDS011;45330;51.634;5.562;2023-04-08T06:11:58;45.88;;;25.90;;
59512;SDS011;45330;51.634;5.562;2023-04-08T06:14:23;44.90;;;25.75;;
59512;SDS011;45330;51.634;5.562;2023-04-08T06:16:49;47.08;;;25.67;;
59512;SDS011;45330;51.634;5.562;2023-04-08T06:19:14;48.28;;;26.60;;
59512;SDS011;45330;51.634;5.562;2023-04-08T06:21:40;46.97;;;26.65;;
59512;SDS011;45330;51.634;5.562;2023-04-08T06:24:05;45.83;;;25.75;;
59512;SDS011;45330;51.634;5.562;2023-04-08T06:26:31;44.08;;;25.17;;
59512;SDS011;45330;51.634;5.562;2023-04-08T06:28:57;45.80;;;25.80;;
59512;SDS011;45330;51.634;5.562;2023-04-08T06:31:22;45.10;;;25.85;;
59512;SDS011;45330;51.634;5.562;2023-04-08T06:33:48;46.08;;;25.42;;
59512;SDS011;45330;51.634;5.562;2023-04-08T06:36:14;44.38;;;25.38;;
59512;SDS011;45330;51.634;5.562;2023-04-08T06:38:40;43.67;;;25.88;;
59512;SDS011;45330;51.634;5.562;2023-04-08T06:41:05;42.08;;;24.70;;
59512;SDS011;45330;51.634;5.562;2023-04-08T06:43:32;41.17;;;23.58;;
59512;SDS011;45330;51.634;5.562;2023-04-08T06:45:58;40.15;;;23.65;;
59512;SDS011;45330;51.634;5.562;2023-04-08T06:48:23;43.78;;;25.27;;
59512;SDS011;45330;51.634;5.562;2023-04-08T06:50:57;42.28;;;23.58;;
59512;SDS011;45330;51.634;5.562;2023-04-08T06:53:25;45.65;;;25.25;;
59512;SDS011;45330;51.634;5.562;2023-04-08T06:55:53;41.13;;;23.92;;
59512;SDS011;45330;51.634;5.562;2023-04-08T06:58:18;43.05;;;24.98;;
59512;SDS011;45330;51.634;5.562;2023-04-08T07:00:44;42.45;;;25.50;;
59512;SDS011;45330;51.634;5.562;2023-04-08T07:03:09;45.92;;;24.65;;
59512;SDS011;45330;51.634;5.562;2023-04-08T07:05:35;43.55;;;25.13;;
59512;SDS011;45330;51.634;5.562;2023-04-08T07:08:01;44.03;;;24.33;;
59512;SDS011;45330;51.634;5.562;2023-04-08T07:10:26;42.60;;;23.67;;
59512;SDS011;45330;51.634;5.562;2023-04-08T07:12:52;43.88;;;23.88;;
59512;SDS011;45330;51.634;5.562;2023-04-08T07:15:18;43.17;;;23.48;;
59512;SDS011;45330;51.634;5.562;2023-04-08T07:17:43;39.55;;;21.92;;
59512;SDS011;45330;51.634;5.562;2023-04-08T07:20:09;38.15;;;21.73;;
59512;SDS011;45330;51.634;5.562;2023-04-08T07:22:34;40.58;;;21.88;;
59512;SDS011;45330;51.634;5.562;2023-04-08T07:25:00;41.67;;;23.70;;
59512;SDS011;45330;51.634;5.562;2023-04-08T07:27:26;38.70;;;21.88;;
59512;SDS011;45330;51.634;5.562;2023-04-08T07:29:52;41.75;;;22.30;;
59512;SDS011;45330;51.634;5.562;2023-04-08T07:32:21;40.25;;;22.17;;
59512;SDS011;45330;51.634;5.562;2023-04-08T07:34:46;39.13;;;20.30;;
59512;SDS011;45330;51.634;5.562;2023-04-08T07:37:12;41.25;;;21.42;;
59512;SDS011;45330;51.634;5.562;2023-04-08T07:39:37;34.83;;;20.15;;
59512;SDS011;45330;51.634;5.562;2023-04-08T07:42:03;36.10;;;20.00;;
59512;SDS011;45330;51.634;5.562;2023-04-08T07:44:28;37.10;;;19.23;;
59512;SDS011;45330;51.634;5.562;2023-04-08T07:46:53;34.78;;;18.55;;
59512;SDS011;45330;51.634;5.562;2023-04-08T07:49:19;36.67;;;20.02;;
59512;SDS011;45330;51.634;5.562;2023-04-08T07:51:44;33.45;;;18.73;;
59512;SDS011;45330;51.634;5.562;2023-04-08T07:54:10;34.50;;;18.35;;
59512;SDS011;45330;51.634;5.562;2023-04-08T07:56:36;31.40;;;17.88;;
59512;SDS011;45330;51.634;5.562;2023-04-08T07:59:04;31.95;;;17.80;;
59512;SDS011;45330;51.634;5.562;2023-04-08T08:01:32;30.45;;;17.90;;
59512;SDS011;45330;51.634;5.562;2023-04-08T08:03:59;30.92;;;18.08;;
59512;SDS011;45330;51.634;5.562;2023-04-08T08:06:25;31.73;;;18.80;;
59512;SDS011;45330;51.634;5.562;2023-04-08T08:08:51;34.88;;;18.33;;
59512;SDS011;45330;51.634;5.562;2023-04-08T08:11:17;31.42;;;18.38;;
59512;SDS011;45330;51.634;5.562;2023-04-08T08:13:42;30.52;;;17.70;;
59512;SDS011;45330;51.634;5.562;2023-04-08T08:16:08;33.25;;;18.40;;
59512;SDS011;45330;51.634;5.562;2023-04-08T08:18:35;30.45;;;18.13;;
59512;SDS011;45330;51.634;5.562;2023-04-08T08:21:01;28.52;;;17.70;;
59512;SDS011;45330;51.634;5.562;2023-04-08T08:23:27;29.55;;;18.05;;
59512;SDS011;45330;51.634;5.562;2023-04-08T08:26:02;30.92;;;17.90;;
59512;SDS011;45330;51.634;5.562;2023-04-08T08:28:30;28.27;;;17.35;;
59512;SDS011;45330;51.634;5.562;2023-04-08T08:30:56;30.10;;;17.40;;
59512;SDS011;45330;51.634;5.562;2023-04-08T08:33:21;28.23;;;17.92;;
59512;SDS011;45330;51.634;5.562;2023-04-08T08:35:46;29.55;;;17.40;;
59512;SDS011;45330;51.634;5.562;2023-04-08T08:38:12;28.73;;;16.83;;
59512;SDS011;45330;51.634;5.562;2023-04-08T08:40:38;26.73;;;16.15;;
59512;SDS011;45330;51.634;5.562;2023-04-08T08:43:03;25.80;;;15.93;;
59512;SDS011;45330;51.634;5.562;2023-04-08T08:45:29;28.60;;;18.23;;
59512;SDS011;45330;51.634;5.562;2023-04-08T08:47:55;25.83;;;16.27;;
59512;SDS011;45330;51.634;5.562;2023-04-08T08:50:21;27.58;;;16.48;;
59512;SDS011;45330;51.634;5.562;2023-04-08T08:52:47;26.20;;;16.35;;
59512;SDS011;45330;51.634;5.562;2023-04-08T08:55:19;27.35;;;16.40;;
59512;SDS011;45330;51.634;5.562;2023-04-08T08:57:45;26.88;;;16.33;;
59512;SDS011;45330;51.634;5.562;2023-04-08T09:00:15;26.67;;;15.85;;
59512;SDS011;45330;51.634;5.562;2023-04-08T09:02:41;27.05;;;16.25;;
59512;SDS011;45330;51.634;5.562;2023-04-08T09:05:07;26.33;;;16.20;;
59512;SDS011;45330;51.634;5.562;2023-04-08T09:07:36;27.70;;;17.00;;
59512;SDS011;45330;51.634;5.562;2023-04-08T09:10:04;27.13;;;17.05;;
59512;SDS011;45330;51.634;5.562;2023-04-08T09:12:30;27.13;;;17.13;;
59512;SDS011;45330;51.634;5.562;2023-04-08T09:15:02;26.63;;;15.85;;
59512;SDS011;45330;51.634;5.562;2023-04-08T09:17:36;25.52;;;15.48;;
59512;SDS011;45330;51.634;5.562;2023-04-08T09:22:54;25.15;;;15.30;;
59512;SDS011;45330;51.634;5.562;2023-04-08T09:25:21;25.25;;;15.65;;
59512;SDS011;45330;51.634;5.562;2023-04-08T09:27:50;25.77;;;15.93;;
59512;SDS011;45330;51.634;5.562;2023-04-08T09:30:17;26.50;;;15.75;;
59512;SDS011;45330;51.634;5.562;2023-04-08T09:32:46;26.23;;;16.85;;
59512;SDS011;45330;51.634;5.562;2023-04-08T09:35:12;25.95;;;16.50;;
59512;SDS011;45330;51.634;5.562;2023-04-08T09:37:37;26.60;;;16.40;;
59512;SDS011;45330;51.634;5.562;2023-04-08T09:40:03;26.58;;;16.67;;
59512;SDS011;45330;51.634;5.562;2023-04-08T09:42:29;25.42;;;16.40;;
59512;SDS011;45330;51.634;5.562;2023-04-08T09:44:55;25.65;;;16.58;;
59512;SDS011;45330;51.634;5.562;2023-04-08T09:47:23;26.02;;;17.17;;
59512;SDS011;45330;51.634;5.562;2023-04-08T09:49:54;26.02;;;16.25;;
59512;SDS011;45330;51.634;5.562;2023-04-08T09:55:08;26.50;;;16.80;;
59512;SDS011;45330;51.634;5.562;2023-04-08T10:00:10;27.10;;;16.55;;
59512;SDS011;45330;51.634;5.562;2023-04-08T10:05:36;26.10;;;17.05;;
59512;SDS011;45330;51.634;5.562;2023-04-08T10:08:03;25.92;;;17.02;;
59512;SDS011;45330;51.634;5.562;2023-04-08T10:10:29;25.75;;;17.02;;
59512;SDS011;45330;51.634;5.562;2023-04-08T10:12:55;26.13;;;16.95;;
59512;SDS011;45330;51.634;5.562;2023-04-08T10:15:28;29.17;;;19.40;;
59512;SDS011;45330;51.634;5.562;2023-04-08T10:17:56;26.38;;;17.50;;
59512;SDS011;45330;51.634;5.562;2023-04-08T10:20:46;26.77;;;18.08;;
59512;SDS011;45330;51.634;5.562;2023-04-08T10:23:16;25.73;;;17.38;;
59512;SDS011;45330;51.634;5.562;2023-04-08T10:33:08;26.48;;;17.88;;
59512;SDS011;45330;51.634;5.562;2023-04-08T10:38:12;26.55;;;17.30;;
59512;SDS011;45330;51.634;5.562;2023-04-08T10:40:38;26.23;;;18.00;;
59512;SDS011;45330;51.634;5.562;2023-04-08T10:43:06;26.60;;;18.58;;
59512;SDS011;45330;51.634;5.562;2023-04-08T10:45:35;27.35;;;18.90;;
59512;SDS011;45330;51.634;5.562;2023-04-08T10:48:14;27.65;;;19.02;;
59512;SDS011;45330;51.634;5.562;2023-04-08T10:50:41;27.55;;;18.95;;
59512;SDS011;45330;51.634;5.562;2023-04-08T10:53:07;27.98;;;20.02;;
59512;SDS011;45330;51.634;5.562;2023-04-08T10:55:35;27.35;;;19.85;;
59512;SDS011;45330;51.634;5.562;2023-04-08T10:58:07;30.05;;;21.60;;
59512;SDS011;45330;51.634;5.562;2023-04-08T11:00:38;29.15;;;20.95;;
59512;SDS011;45330;51.634;5.562;2023-04-08T11:03:08;28.42;;;19.70;;
59512;SDS011;45330;51.634;5.562;2023-04-08T11:05:35;28.73;;;19.98;;
59512;SDS011;45330;51.634;5.562;2023-04-08T11:08:02;28.48;;;19.77;;
59512;SDS011;45330;51.634;5.562;2023-04-08T11:10:28;29.15;;;20.17;;
59512;SDS011;45330;51.634;5.562;2023-04-08T11:12:55;28.88;;;20.23;;
59512;SDS011;45330;51.634;5.562;2023-04-08T11:15:21;26.60;;;19.05;;
59512;SDS011;45330;51.634;5.562;2023-04-08T11:17:48;27.75;;;18.80;;
59512;SDS011;45330;51.634;5.562;2023-04-08T11:20:14;28.38;;;19.38;;
59512;SDS011;45330;51.634;5.562;2023-04-08T11:22:39;27.83;;;19.83;;
59512;SDS011;45330;51.634;5.562;2023-04-08T11:25:08;28.48;;;19.67;;
59512;SDS011;45330;51.634;5.562;2023-04-08T11:27:34;28.15;;;20.30;;
59512;SDS011;45330;51.634;5.562;2023-04-08T11:30:01;28.02;;;20.25;;
59512;SDS011;45330;51.634;5.562;2023-04-08T11:32:27;28.25;;;19.70;;
59512;SDS011;45330;51.634;5.562;2023-04-08T11:34:53;29.30;;;20.70;;
59512;SDS011;45330;51.634;5.562;2023-04-08T11:37:19;28.63;;;20.48;;
59512;SDS011;45330;51.634;5.562;2023-04-08T11:39:45;28.08;;;19.83;;
59512;SDS011;45330;51.634;5.562;2023-04-08T11:44:53;28.33;;;20.25;;
59512;SDS011;45330;51.634;5.562;2023-04-08T11:47:19;28.60;;;20.30;;
59512;SDS011;45330;51.634;5.562;2023-04-08T11:50:05;28.50;;;20.38;;
59512;SDS011;45330;51.634;5.562;2023-04-08T11:55:10;28.73;;;21.10;;
59512;SDS011;45330;51.634;5.562;2023-04-08T11:57:53;28.92;;;20.38;;
59512;SDS011;45330;51.634;5.562;2023-04-08T12:00:20;27.20;;;18.67;;
59512;SDS011;45330;51.634;5.562;2023-04-08T12:02:46;27.73;;;19.48;;
59512;SDS011;45330;51.634;5.562;2023-04-08T12:05:12;26.60;;;18.90;;
59512;SDS011;45330;51.634;5.562;2023-04-08T12:07:38;26.88;;;19.17;;
59512;SDS011;45330;51.634;5.562;2023-04-08T12:10:04;26.75;;;19.25;;
59512;SDS011;45330;51.634;5.562;2023-04-08T12:12:30;26.60;;;18.33;;
59512;SDS011;45330;51.634;5.562;2023-04-08T12:14:55;26.13;;;18.58;;
59512;SDS011;45330;51.634;5.562;2023-04-08T12:17:21;26.90;;;19.60;;
59512;SDS011;45330;51.634;5.562;2023-04-08T12:19:46;26.45;;;18.33;;
59512;SDS011;45330;51.634;5.562;2023-04-08T12:22:11;24.90;;;16.85;;
59512;SDS011;45330;51.634;5.562;2023-04-08T12:24:37;25.85;;;16.95;;
59512;SDS011;45330;51.634;5.562;2023-04-08T12:27:02;24.92;;;16.98;;
59512;SDS011;45330;51.634;5.562;2023-04-08T12:29:29;24.40;;;15.43;;
59512;SDS011;45330;51.634;5.562;2023-04-08T12:31:55;22.45;;;14.48;;
59512;SDS011;45330;51.634;5.562;2023-04-08T12:34:21;21.65;;;12.90;;
59512;SDS011;45330;51.634;5.562;2023-04-08T12:36:46;21.92;;;13.15;;
59512;SDS011;45330;51.634;5.562;2023-04-08T12:39:13;21.38;;;13.20;;
59512;SDS011;45330;51.634;5.562;2023-04-08T12:41:38;22.33;;;12.50;;
59512;SDS011;45330;51.634;5.562;2023-04-08T12:44:04;23.23;;;15.13;;
59512;SDS011;45330;51.634;5.562;2023-04-08T12:46:29;22.13;;;13.93;;
59512;SDS011;45330;51.634;5.562;2023-04-08T12:48:55;21.35;;;11.27;;
59512;SDS011;45330;51.634;5.562;2023-04-08T12:51:20;19.13;;;10.15;;
59512;SDS011;45330;51.634;5.562;2023-04-08T12:53:46;20.30;;;10.75;;
59512;SDS011;45330;51.634;5.562;2023-04-08T12:56:11;20.65;;;10.77;;
59512;SDS011;45330;51.634;5.562;2023-04-08T12:58:37;20.88;;;10.13;;
59512;SDS011;45330;51.634;5.562;2023-04-08T13:01:02;20.38;;;9.32;;
59512;SDS011;45330;51.634;5.562;2023-04-08T13:03:27;19.70;;;9.98;;
59512;SDS011;45330;51.634;5.562;2023-04-08T13:05:55;20.70;;;10.20;;
59512;SDS011;45330;51.634;5.562;2023-04-08T13:08:22;20.67;;;10.55;;
59512;SDS011;45330;51.634;5.562;2023-04-08T13:10:48;20.45;;;9.30;;
59512;SDS011;45330;51.634;5.562;2023-04-08T13:13:15;18.35;;;9.65;;
59512;SDS011;45330;51.634;5.562;2023-04-08T13:15:41;19.70;;;9.00;;
59512;SDS011;45330;51.634;5.562;2023-04-08T13:18:07;19.73;;;9.32;;
59512;SDS011;45330;51.634;5.562;2023-04-08T13:20:33;19.05;;;9.38;;
59512;SDS011;45330;51.634;5.562;2023-04-08T13:22:59;19.45;;;9.23;;
59512;SDS011;45330;51.634;5.562;2023-04-08T13:25:24;19.52;;;9.32;;
59512;SDS011;45330;51.634;5.562;2023-04-08T13:27:50;20.85;;;10.75;;
59512;SDS011;45330;51.634;5.562;2023-04-08T13:30:15;20.55;;;10.30;;
59512;SDS011;45330;51.634;5.562;2023-04-08T13:32:41;19.92;;;10.32;;
59512;SDS011;45330;51.634;5.562;2023-04-08T13:35:06;19.65;;;9.90;;
59512;SDS011;45330;51.634;5.562;2023-04-08T13:37:32;20.60;;;10.02;;
59512;SDS011;45330;51.634;5.562;2023-04-08T13:39:57;19.08;;;9.77;;
59512;SDS011;45330;51.634;5.562;2023-04-08T13:42:23;19.13;;;9.82;;
59512;SDS011;45330;51.634;5.562;2023-04-08T13:44:48;20.25;;;10.65;;
59512;SDS011;45330;51.634;5.562;2023-04-08T13:47:13;20.90;;;10.85;;
59512;SDS011;45330;51.634;5.562;2023-04-08T13:49:39;20.80;;;10.00;;
59512;SDS011;45330;51.634;5.562;2023-04-08T13:52:05;19.60;;;9.82;;
59512;SDS011;45330;51.634;5.562;2023-04-08T13:54:30;21.45;;;10.85;;
59512;SDS011;45330;51.634;5.562;2023-04-08T13:56:55;21.70;;;10.80;;
59512;SDS011;45330;51.634;5.562;2023-04-08T13:59:21;20.67;;;10.80;;
59512;SDS011;45330;51.634;5.562;2023-04-08T14:01:47;20.95;;;10.60;;
59512;SDS011;45330;51.634;5.562;2023-04-08T14:04:12;20.45;;;10.18;;
59512;SDS011;45330;51.634;5.562;2023-04-08T14:06:37;20.10;;;10.32;;
59512;SDS011;45330;51.634;5.562;2023-04-08T14:09:03;19.77;;;9.70;;
59512;SDS011;45330;51.634;5.562;2023-04-08T14:11:28;19.60;;;9.75;;
59512;SDS011;45330;51.634;5.562;2023-04-08T14:13:54;20.20;;;10.30;;
59512;SDS011;45330;51.634;5.562;2023-04-08T14:16:19;20.00;;;10.35;;
59512;SDS011;45330;51.634;5.562;2023-04-08T14:18:45;19.70;;;9.48;;
59512;SDS011;45330;51.634;5.562;2023-04-08T14:21:10;19.90;;;9.43;;
59512;SDS011;45330;51.634;5.562;2023-04-08T14:23:38;19.92;;;8.95;;
59512;SDS011;45330;51.634;5.562;2023-04-08T14:26:03;19.20;;;9.38;;
59512;SDS011;45330;51.634;5.562;2023-04-08T14:28:29;19.90;;;9.88;;
59512;SDS011;45330;51.634;5.562;2023-04-08T14:30:54;19.48;;;9.95;;
59512;SDS011;45330;51.634;5.562;2023-04-08T14:33:20;19.33;;;9.35;;
59512;SDS011;45330;51.634;5.562;2023-04-08T14:35:45;19.42;;;9.68;;
59512;SDS011;45330;51.634;5.562;2023-04-08T14:38:11;20.38;;;10.10;;
59512;SDS011;45330;51.634;5.562;2023-04-08T14:40:37;20.63;;;10.07;;
59512;SDS011;45330;51.634;5.562;2023-04-08T14:43:02;19.23;;;9.98;;
59512;SDS011;45330;51.634;5.562;2023-04-08T14:45:27;19.42;;;9.88;;
59512;SDS011;45330;51.634;5.562;2023-04-08T14:47:53;20.30;;;10.23;;